sensor_id;sensor_type;location;lat;lon;timestamp;temperature;humidity
69204;DHT22;56317;27.658;85.326;2024-03-06T00:00:06;6.40;99.90
69204;DHT22;56317;27.658;85.326;2024-03-06T00:02:35;6.30;99.90
69204;DHT22;56317;27.658;85.326;2024-03-06T00:05:02;6.20;99.90
69204;DHT22;56317;27.658;85.326;2024-03-06T00:07:31;6.30;1.00
69204;DHT22;56317;27.658;85.326;2024-03-06T00:09:58;6.40;1.00
69204;DHT22;56317;27.658;85.326;2024-03-06T00:12:25;6.40;99.90
69204;DHT22;56317;27.658;85.326;2024-03-06T00:14:52;6.30;99.90
69204;DHT22;56317;27.658;85.326;2024-03-06T00:17:19;6.40;1.00
69204;DHT22;56317;27.658;85.326;2024-03-06T00:19:46;6.40;99.90
69204;DHT22;56317;27.658;85.326;2024-03-06T00:22:13;6.50;99.90
69204;DHT22;56317;27.658;85.326;2024-03-06T00:24:40;6.40;99.90
69204;DHT22;56317;27.658;85.326;2024-03-06T00:27:08;6.20;99.90
69204;DHT22;56317;27.658;85.326;2024-03-06T00:29:36;6.20;99.90
69204;DHT22;56317;27.658;85.326;2024-03-06T00:32:04;6.20;99.90
69204;DHT22;56317;27.658;85.326;2024-03-06T00:34:32;6.20;1.00
69204;DHT22;56317;27.658;85.326;2024-03-06T00:36:59;6.20;1.00
69204;DHT22;56317;27.658;85.326;2024-03-06T00:39:26;6.10;99.90
69204;DHT22;56317;27.658;85.326;2024-03-06T00:41:53;6.10;1.00
69204;DHT22;56317;27.658;85.326;2024-03-06T00:44:20;6.20;1.00
69204;DHT22;56317;27.658;85.326;2024-03-06T00:46:47;6.20;99.90
69204;DHT22;56317;27.658;85.326;2024-03-06T00:49:15;6.20;99.90
69204;DHT22;56317;27.658;85.326;2024-03-06T00:51:42;6.20;99.90
69204;DHT22;56317;27.658;85.326;2024-03-06T00:54:09;6.20;99.90
69204;DHT22;56317;27.658;85.326;2024-03-06T00:56:39;6.20;99.90
69204;DHT22;56317;27.658;85.326;2024-03-06T00:59:06;6.40;99.90
69204;DHT22;56317;27.658;85.326;2024-03-06T01:01:34;6.60;99.90
69204;DHT22;56317;27.658;85.326;2024-03-06T01:04:01;6.70;99.90
69204;DHT22;56317;27.658;85.326;2024-03-06T01:06:28;6.80;1.00
69204;DHT22;56317;27.658;85.326;2024-03-06T01:08:56;6.80;1.00
69204;DHT22;56317;27.658;85.326;2024-03-06T01:11:25;6.70;1.00
69204;DHT22;56317;27.658;85.326;2024-03-06T01:13:53;6.80;22.60
69204;DHT22;56317;27.658;85.326;2024-03-06T01:16:20;6.80;1.00
69204;DHT22;56317;27.658;85.326;2024-03-06T01:18:47;6.90;48.80
69204;DHT22;56317;27.658;85.326;2024-03-06T01:21:15;7.10;1.00
69204;DHT22;56317;27.658;85.326;2024-03-06T01:23:42;7.30;99.90
69204;DHT22;56317;27.658;85.326;2024-03-06T01:26:10;7.50;1.00
69204;DHT22;56317;27.658;85.326;2024-03-06T01:28:39;7.60;1.00
69204;DHT22;56317;27.658;85.326;2024-03-06T01:31:08;7.90;99.90
69204;DHT22;56317;27.658;85.326;2024-03-06T01:33:36;8.20;99.90
69204;DHT22;56317;27.658;85.326;2024-03-06T01:36:03;8.40;57.20
69204;DHT22;56317;27.658;85.326;2024-03-06T01:38:31;8.60;30.20
69204;DHT22;56317;27.658;85.326;2024-03-06T01:40:58;8.80;1.00
69204;DHT22;56317;27.658;85.326;2024-03-06T01:43:26;8.90;99.90
69204;DHT22;56317;27.658;85.326;2024-03-06T01:45:54;9.00;78.80
69204;DHT22;56317;27.658;85.326;2024-03-06T01:48:29;9.20;1.00
69204;DHT22;56317;27.658;85.326;2024-03-06T01:50:59;9.30;1.00
69204;DHT22;56317;27.658;85.326;2024-03-06T01:53:28;9.50;1.00
69204;DHT22;56317;27.658;85.326;2024-03-06T01:56:01;9.60;99.90
69204;DHT22;56317;27.658;85.326;2024-03-06T01:58:30;9.70;99.90
69204;DHT22;56317;27.658;85.326;2024-03-06T02:00:59;9.90;99.90
69204;DHT22;56317;27.658;85.326;2024-03-06T02:03:26;10.10;99.90
69204;DHT22;56317;27.658;85.326;2024-03-06T02:05:57;10.30;99.90
69204;DHT22;56317;27.658;85.326;2024-03-06T02:08:25;10.50;99.90
69204;DHT22;56317;27.658;85.326;2024-03-06T02:10:52;10.60;99.90
69204;DHT22;56317;27.658;85.326;2024-03-06T02:13:19;10.80;1.00
69204;DHT22;56317;27.658;85.326;2024-03-06T02:15:48;10.90;1.00
69204;DHT22;56317;27.658;85.326;2024-03-06T02:18:17;11.10;1.00
69204;DHT22;56317;27.658;85.326;2024-03-06T02:20:44;11.20;1.00
69204;DHT22;56317;27.658;85.326;2024-03-06T02:23:13;11.40;1.00
69204;DHT22;56317;27.658;85.326;2024-03-06T02:25:45;11.60;1.00
69204;DHT22;56317;27.658;85.326;2024-03-06T02:28:16;11.90;99.90
69204;DHT22;56317;27.658;85.326;2024-03-06T02:30:44;12.10;99.90
69204;DHT22;56317;27.658;85.326;2024-03-06T02:33:11;12.40;99.90
69204;DHT22;56317;27.658;85.326;2024-03-06T02:35:41;12.40;99.90
69204;DHT22;56317;27.658;85.326;2024-03-06T02:38:11;12.60;99.90
69204;DHT22;56317;27.658;85.326;2024-03-06T02:40:38;12.90;99.90
69204;DHT22;56317;27.658;85.326;2024-03-06T02:43:05;13.10;99.90
69204;DHT22;56317;27.658;85.326;2024-03-06T02:45:35;13.40;99.90
69204;DHT22;56317;27.658;85.326;2024-03-06T02:48:03;13.50;99.90
69204;DHT22;56317;27.658;85.326;2024-03-06T02:50:31;13.50;29.60
69204;DHT22;56317;27.658;85.326;2024-03-06T02:53:00;13.70;1.00
69204;DHT22;56317;27.658;85.326;2024-03-06T02:55:27;13.80;1.00
69204;DHT22;56317;27.658;85.326;2024-03-06T02:57:54;13.90;1.00
69204;DHT22;56317;27.658;85.326;2024-03-06T03:00:22;14.20;1.00
69204;DHT22;56317;27.658;85.326;2024-03-06T03:02:50;14.50;1.00
69204;DHT22;56317;27.658;85.326;2024-03-06T03:05:17;14.60;1.00
69204;DHT22;56317;27.658;85.326;2024-03-06T03:07:44;14.80;1.00
69204;DHT22;56317;27.658;85.326;2024-03-06T03:10:14;14.80;1.00
69204;DHT22;56317;27.658;85.326;2024-03-06T03:12:41;15.00;1.00
69204;DHT22;56317;27.658;85.326;2024-03-06T03:15:09;15.20;1.00
69204;DHT22;56317;27.658;85.326;2024-03-06T03:17:36;15.50;1.00
69204;DHT22;56317;27.658;85.326;2024-03-06T03:20:04;15.80;1.00
69204;DHT22;56317;27.658;85.326;2024-03-06T03:22:40;16.00;1.00
69204;DHT22;56317;27.658;85.326;2024-03-06T03:25:08;16.40;1.00
69204;DHT22;56317;27.658;85.326;2024-03-06T03:27:56;16.70;1.00
69204;DHT22;56317;27.658;85.326;2024-03-06T03:30:23;16.80;1.00
69204;DHT22;56317;27.658;85.326;2024-03-06T03:32:50;17.00;99.90
69204;DHT22;56317;27.658;85.326;2024-03-06T03:35:17;17.20;99.90
69204;DHT22;56317;27.658;85.326;2024-03-06T03:37:47;17.40;99.90
69204;DHT22;56317;27.658;85.326;2024-03-06T03:40:14;17.50;99.90
69204;DHT22;56317;27.658;85.326;2024-03-06T03:42:44;17.80;99.90
69204;DHT22;56317;27.658;85.326;2024-03-06T03:45:13;18.20;99.90
69204;DHT22;56317;27.658;85.326;2024-03-06T03:47:41;18.20;99.90
69204;DHT22;56317;27.658;85.326;2024-03-06T03:50:09;18.20;99.90
69204;DHT22;56317;27.658;85.326;2024-03-06T03:52:37;18.60;99.90
69204;DHT22;56317;27.658;85.326;2024-03-06T03:55:08;18.90;99.90
69204;DHT22;56317;27.658;85.326;2024-03-06T03:57:35;19.20;99.90
69204;DHT22;56317;27.658;85.326;2024-03-06T04:00:03;19.40;99.90
69204;DHT22;56317;27.658;85.326;2024-03-06T04:02:37;19.70;99.90
69204;DHT22;56317;27.658;85.326;2024-03-06T04:05:05;19.90;99.90
69204;DHT22;56317;27.658;85.326;2024-03-06T04:07:33;20.20;99.90
69204;DHT22;56317;27.658;85.326;2024-03-06T04:10:01;20.50;99.90
69204;DHT22;56317;27.658;85.326;2024-03-06T04:12:28;20.90;99.90
69204;DHT22;56317;27.658;85.326;2024-03-06T04:14:55;21.00;99.90
69204;DHT22;56317;27.658;85.326;2024-03-06T04:17:22;21.20;99.90
69204;DHT22;56317;27.658;85.326;2024-03-06T04:19:51;21.50;99.90
69204;DHT22;56317;27.658;85.326;2024-03-06T04:22:20;21.30;99.90
69204;DHT22;56317;27.658;85.326;2024-03-06T04:24:47;21.50;99.90
69204;DHT22;56317;27.658;85.326;2024-03-06T04:27:14;22.10;99.90
69204;DHT22;56317;27.658;85.326;2024-03-06T04:29:44;22.60;99.90
69204;DHT22;56317;27.658;85.326;2024-03-06T04:32:11;23.00;99.90
69204;DHT22;56317;27.658;85.326;2024-03-06T04:34:38;22.90;99.90
69204;DHT22;56317;27.658;85.326;2024-03-06T04:37:05;23.30;99.90
69204;DHT22;56317;27.658;85.326;2024-03-06T04:39:33;23.60;99.90
69204;DHT22;56317;27.658;85.326;2024-03-06T04:42:00;23.70;99.90
69204;DHT22;56317;27.658;85.326;2024-03-06T04:44:28;24.10;99.90
69204;DHT22;56317;27.658;85.326;2024-03-06T04:46:57;24.20;99.90
69204;DHT22;56317;27.658;85.326;2024-03-06T04:49:24;24.10;99.90
69204;DHT22;56317;27.658;85.326;2024-03-06T04:51:52;24.70;99.90
69204;DHT22;56317;27.658;85.326;2024-03-06T04:54:19;25.20;99.90
69204;DHT22;56317;27.658;85.326;2024-03-06T04:56:47;25.40;99.90
69204;DHT22;56317;27.658;85.326;2024-03-06T04:59:15;25.60;99.90
69204;DHT22;56317;27.658;85.326;2024-03-06T05:01:45;25.70;99.90
69204;DHT22;56317;27.658;85.326;2024-03-06T05:04:14;26.10;99.90
69204;DHT22;56317;27.658;85.326;2024-03-06T05:06:41;30.20;99.90
69204;DHT22;56317;27.658;85.326;2024-03-06T05:09:08;34.60;99.90
69204;DHT22;56317;27.658;85.326;2024-03-06T05:11:40;34.80;99.90
69204;DHT22;56317;27.658;85.326;2024-03-06T05:14:08;36.70;99.90
69204;DHT22;56317;27.658;85.326;2024-03-06T05:16:38;37.10;99.90
69204;DHT22;56317;27.658;85.326;2024-03-06T05:19:06;38.70;99.90
69204;DHT22;56317;27.658;85.326;2024-03-06T05:21:33;38.10;99.90
69204;DHT22;56317;27.658;85.326;2024-03-06T05:24:01;38.50;99.90
69204;DHT22;56317;27.658;85.326;2024-03-06T05:26:29;39.90;99.90
69204;DHT22;56317;27.658;85.326;2024-03-06T05:28:56;39.90;99.90
69204;DHT22;56317;27.658;85.326;2024-03-06T05:31:23;40.80;99.90
69204;DHT22;56317;27.658;85.326;2024-03-06T05:33:51;40.50;99.90
69204;DHT22;56317;27.658;85.326;2024-03-06T05:36:18;42.40;99.90
69204;DHT22;56317;27.658;85.326;2024-03-06T05:38:46;44.40;99.90
69204;DHT22;56317;27.658;85.326;2024-03-06T05:41:16;44.40;99.90
69204;DHT22;56317;27.658;85.326;2024-03-06T05:43:44;45.10;99.90
69204;DHT22;56317;27.658;85.326;2024-03-06T05:46:11;45.90;99.90
69204;DHT22;56317;27.658;85.326;2024-03-06T05:48:39;46.50;99.90
69204;DHT22;56317;27.658;85.326;2024-03-06T05:51:06;46.30;99.90
69204;DHT22;56317;27.658;85.326;2024-03-06T05:53:37;46.70;99.90
69204;DHT22;56317;27.658;85.326;2024-03-06T05:56:08;47.60;99.90
69204;DHT22;56317;27.658;85.326;2024-03-06T06:11:28;49.10;99.90
69204;DHT22;56317;27.658;85.326;2024-03-06T06:13:56;47.60;99.90
69204;DHT22;56317;27.658;85.326;2024-03-06T06:27:10;48.10;99.90
69204;DHT22;56317;27.658;85.326;2024-03-06T06:29:39;53.20;99.90
69204;DHT22;56317;27.658;85.326;2024-03-06T06:32:06;53.90;99.90
69204;DHT22;56317;27.658;85.326;2024-03-06T06:34:33;52.20;99.90
69204;DHT22;56317;27.658;85.326;2024-03-06T06:37:01;53.10;99.90
69204;DHT22;56317;27.658;85.326;2024-03-06T06:39:28;52.50;99.90
69204;DHT22;56317;27.658;85.326;2024-03-06T06:41:56;51.90;99.90
69204;DHT22;56317;27.658;85.326;2024-03-06T06:44:23;51.10;99.90
69204;DHT22;56317;27.658;85.326;2024-03-06T06:46:50;49.80;99.90
69204;DHT22;56317;27.658;85.326;2024-03-06T06:49:24;49.50;99.90
69204;DHT22;56317;27.658;85.326;2024-03-06T06:51:59;49.40;99.90
69204;DHT22;56317;27.658;85.326;2024-03-06T06:54:26;48.10;99.90
69204;DHT22;56317;27.658;85.326;2024-03-06T06:56:54;48.70;99.90
69204;DHT22;56317;27.658;85.326;2024-03-06T06:59:21;49.30;99.90
69204;DHT22;56317;27.658;85.326;2024-03-06T07:01:49;48.10;99.90
69204;DHT22;56317;27.658;85.326;2024-03-06T07:04:17;47.30;99.90
69204;DHT22;56317;27.658;85.326;2024-03-06T07:06:47;48.00;99.90
69204;DHT22;56317;27.658;85.326;2024-03-06T07:09:14;49.00;99.90
69204;DHT22;56317;27.658;85.326;2024-03-06T07:11:45;47.60;99.90
69204;DHT22;56317;27.658;85.326;2024-03-06T07:14:15;46.40;99.90
69204;DHT22;56317;27.658;85.326;2024-03-06T07:16:43;46.40;99.90
69204;DHT22;56317;27.658;85.326;2024-03-06T07:19:11;47.60;99.90
69204;DHT22;56317;27.658;85.326;2024-03-06T07:21:39;45.80;99.90
69204;DHT22;56317;27.658;85.326;2024-03-06T07:24:06;45.20;99.90
69204;DHT22;56317;27.658;85.326;2024-03-06T07:26:33;44.30;99.90
69204;DHT22;56317;27.658;85.326;2024-03-06T07:29:01;42.50;99.90
69204;DHT22;56317;27.658;85.326;2024-03-06T07:31:29;42.50;99.90
69204;DHT22;56317;27.658;85.326;2024-03-06T07:33:57;43.00;99.90
69204;DHT22;56317;27.658;85.326;2024-03-06T07:36:24;44.10;99.90
69204;DHT22;56317;27.658;85.326;2024-03-06T07:38:52;44.20;99.90
69204;DHT22;56317;27.658;85.326;2024-03-06T07:41:19;43.50;99.90
69204;DHT22;56317;27.658;85.326;2024-03-06T07:43:47;42.60;99.90
69204;DHT22;56317;27.658;85.326;2024-03-06T07:46:15;44.20;99.90
69204;DHT22;56317;27.658;85.326;2024-03-06T07:48:45;43.70;99.90
69204;DHT22;56317;27.658;85.326;2024-03-06T07:51:12;46.70;99.90
69204;DHT22;56317;27.658;85.326;2024-03-06T07:53:40;48.40;99.90
69204;DHT22;56317;27.658;85.326;2024-03-06T07:56:10;50.30;99.90
69204;DHT22;56317;27.658;85.326;2024-03-06T07:58:44;51.80;99.90
69204;DHT22;56317;27.658;85.326;2024-03-06T08:01:11;52.40;99.90
69204;DHT22;56317;27.658;85.326;2024-03-06T08:03:40;53.40;99.90
69204;DHT22;56317;27.658;85.326;2024-03-06T08:06:10;53.20;99.90
69204;DHT22;56317;27.658;85.326;2024-03-06T08:08:40;54.10;99.90
69204;DHT22;56317;27.658;85.326;2024-03-06T08:11:08;54.80;99.90
69204;DHT22;56317;27.658;85.326;2024-03-06T08:13:38;54.50;99.90
69204;DHT22;56317;27.658;85.326;2024-03-06T08:16:06;54.90;99.90
69204;DHT22;56317;27.658;85.326;2024-03-06T08:18:34;54.70;99.90
69204;DHT22;56317;27.658;85.326;2024-03-06T08:21:02;56.00;99.90
69204;DHT22;56317;27.658;85.326;2024-03-06T08:23:33;56.00;99.90
69204;DHT22;56317;27.658;85.326;2024-03-06T08:26:00;56.00;99.90
69204;DHT22;56317;27.658;85.326;2024-03-06T08:28:27;56.00;99.90
69204;DHT22;56317;27.658;85.326;2024-03-06T08:30:55;54.60;99.90
69204;DHT22;56317;27.658;85.326;2024-03-06T08:33:22;52.90;99.90
69204;DHT22;56317;27.658;85.326;2024-03-06T08:35:49;51.40;99.90
69204;DHT22;56317;27.658;85.326;2024-03-06T08:38:16;50.90;99.90
69204;DHT22;56317;27.658;85.326;2024-03-06T08:40:44;50.70;99.90
69204;DHT22;56317;27.658;85.326;2024-03-06T08:43:15;51.90;99.90
69204;DHT22;56317;27.658;85.326;2024-03-06T08:45:43;53.10;99.90
69204;DHT22;56317;27.658;85.326;2024-03-06T08:48:10;54.20;99.90
69204;DHT22;56317;27.658;85.326;2024-03-06T08:50:39;54.60;99.90
69204;DHT22;56317;27.658;85.326;2024-03-06T08:53:06;53.90;99.90
69204;DHT22;56317;27.658;85.326;2024-03-06T08:55:35;53.50;99.90
69204;DHT22;56317;27.658;85.326;2024-03-06T08:58:03;52.90;99.90
69204;DHT22;56317;27.658;85.326;2024-03-06T09:00:31;53.70;99.90
69204;DHT22;56317;27.658;85.326;2024-03-06T09:02:58;53.50;99.90
69204;DHT22;56317;27.658;85.326;2024-03-06T09:05:26;53.90;99.90
69204;DHT22;56317;27.658;85.326;2024-03-06T09:07:54;53.90;99.90
69204;DHT22;56317;27.658;85.326;2024-03-06T09:10:25;54.20;99.90
69204;DHT22;56317;27.658;85.326;2024-03-06T09:12:53;53.70;99.90
69204;DHT22;56317;27.658;85.326;2024-03-06T09:15:20;53.90;99.90
69204;DHT22;56317;27.658;85.326;2024-03-06T09:17:48;54.20;99.90
69204;DHT22;56317;27.658;85.326;2024-03-06T09:20:15;52.80;99.90
69204;DHT22;56317;27.658;85.326;2024-03-06T09:22:43;52.50;99.90
69204;DHT22;56317;27.658;85.326;2024-03-06T09:25:11;52.80;99.90
69204;DHT22;56317;27.658;85.326;2024-03-06T09:27:41;53.10;99.90
69204;DHT22;56317;27.658;85.326;2024-03-06T09:30:09;51.90;99.90
69204;DHT22;56317;27.658;85.326;2024-03-06T09:32:38;49.60;99.90
69204;DHT22;56317;27.658;85.326;2024-03-06T09:35:06;50.00;99.90
69204;DHT22;56317;27.658;85.326;2024-03-06T09:37:33;50.90;99.90
69204;DHT22;56317;27.658;85.326;2024-03-06T09:40:03;50.90;99.90
69204;DHT22;56317;27.658;85.326;2024-03-06T09:42:31;51.70;99.90
69204;DHT22;56317;27.658;85.326;2024-03-06T09:44:58;51.80;99.90
69204;DHT22;56317;27.658;85.326;2024-03-06T09:47:25;50.70;99.90
69204;DHT22;56317;27.658;85.326;2024-03-06T09:49:57;50.70;99.90
69204;DHT22;56317;27.658;85.326;2024-03-06T09:52:24;50.60;99.90
69204;DHT22;56317;27.658;85.326;2024-03-06T09:54:54;50.80;99.90
69204;DHT22;56317;27.658;85.326;2024-03-06T09:57:22;48.90;99.90
69204;DHT22;56317;27.658;85.326;2024-03-06T09:59:50;48.30;99.90
69204;DHT22;56317;27.658;85.326;2024-03-06T10:02:51;48.00;99.90
69204;DHT22;56317;27.658;85.326;2024-03-06T10:05:22;47.70;99.90
69204;DHT22;56317;27.658;85.326;2024-03-06T10:07:56;45.90;99.90
69204;DHT22;56317;27.658;85.326;2024-03-06T10:10:25;45.30;99.90
69204;DHT22;56317;27.658;85.326;2024-03-06T10:12:53;44.30;99.90
69204;DHT22;56317;27.658;85.326;2024-03-06T10:15:21;41.50;99.90
69204;DHT22;56317;27.658;85.326;2024-03-06T10:17:49;40.70;99.90
69204;DHT22;56317;27.658;85.326;2024-03-06T10:20:25;37.10;99.90
69204;DHT22;56317;27.658;85.326;2024-03-06T10:22:54;34.20;99.90
69204;DHT22;56317;27.658;85.326;2024-03-06T10:25:25;36.40;99.90
69204;DHT22;56317;27.658;85.326;2024-03-06T10:28:07;38.80;99.90
69204;DHT22;56317;27.658;85.326;2024-03-06T10:30:41;42.20;99.90
69204;DHT22;56317;27.658;85.326;2024-03-06T10:33:09;42.90;99.90
69204;DHT22;56317;27.658;85.326;2024-03-06T10:35:37;43.70;99.90
69204;DHT22;56317;27.658;85.326;2024-03-06T10:38:06;43.90;99.90
69204;DHT22;56317;27.658;85.326;2024-03-06T10:40:42;43.10;99.90
69204;DHT22;56317;27.658;85.326;2024-03-06T10:43:10;42.50;99.90
69204;DHT22;56317;27.658;85.326;2024-03-06T10:48:10;40.40;99.90
69204;DHT22;56317;27.658;85.326;2024-03-06T10:50:40;38.60;99.90
69204;DHT22;56317;27.658;85.326;2024-03-06T10:53:13;38.30;99.90
69204;DHT22;56317;27.658;85.326;2024-03-06T10:55:42;38.40;99.90
69204;DHT22;56317;27.658;85.326;2024-03-06T10:58:14;37.20;99.90
69204;DHT22;56317;27.658;85.326;2024-03-06T11:00:45;37.60;99.90
69204;DHT22;56317;27.658;85.326;2024-03-06T11:03:16;38.50;99.90
69204;DHT22;56317;27.658;85.326;2024-03-06T11:05:44;38.70;99.90
69204;DHT22;56317;27.658;85.326;2024-03-06T11:08:17;38.80;99.90
69204;DHT22;56317;27.658;85.326;2024-03-06T11:10:44;38.90;99.90
69204;DHT22;56317;27.658;85.326;2024-03-06T11:13:24;38.80;99.90
69204;DHT22;56317;27.658;85.326;2024-03-06T11:15:57;38.70;99.90
69204;DHT22;56317;27.658;85.326;2024-03-06T11:23:31;38.20;99.90
69204;DHT22;56317;27.658;85.326;2024-03-06T11:26:09;37.90;99.90
69204;DHT22;56317;27.658;85.326;2024-03-06T11:28:37;37.00;99.90
69204;DHT22;56317;27.658;85.326;2024-03-06T11:31:12;34.80;99.90
69204;DHT22;56317;27.658;85.326;2024-03-06T11:33:52;30.80;99.90
69204;DHT22;56317;27.658;85.326;2024-03-06T11:36:29;27.30;99.90
69204;DHT22;56317;27.658;85.326;2024-03-06T11:38:58;25.50;99.90
69204;DHT22;56317;27.658;85.326;2024-03-06T11:41:46;24.00;99.90
69204;DHT22;56317;27.658;85.326;2024-03-06T11:44:19;23.30;99.90
69204;DHT22;56317;27.658;85.326;2024-03-06T11:46:59;22.20;99.90
69204;DHT22;56317;27.658;85.326;2024-03-06T11:49:28;21.60;99.90
69204;DHT22;56317;27.658;85.326;2024-03-06T11:52:08;21.40;99.90
69204;DHT22;56317;27.658;85.326;2024-03-06T11:54:38;20.90;99.90
69204;DHT22;56317;27.658;85.326;2024-03-06T11:57:05;20.50;99.90
69204;DHT22;56317;27.658;85.326;2024-03-06T11:59:34;20.20;99.90
69204;DHT22;56317;27.658;85.326;2024-03-06T12:02:04;19.80;99.90
69204;DHT22;56317;27.658;85.326;2024-03-06T12:04:35;19.50;99.90
69204;DHT22;56317;27.658;85.326;2024-03-06T12:07:06;19.20;99.90
69204;DHT22;56317;27.658;85.326;2024-03-06T12:09:34;19.00;99.90
69204;DHT22;56317;27.658;85.326;2024-03-06T12:12:01;18.70;99.90
69204;DHT22;56317;27.658;85.326;2024-03-06T12:14:29;18.40;99.90
69204;DHT22;56317;27.658;85.326;2024-03-06T12:16:57;18.20;99.90
69204;DHT22;56317;27.658;85.326;2024-03-06T12:19:28;18.00;99.90
69204;DHT22;56317;27.658;85.326;2024-03-06T12:22:04;18.00;99.90
69204;DHT22;56317;27.658;85.326;2024-03-06T12:24:32;17.90;99.90
69204;DHT22;56317;27.658;85.326;2024-03-06T12:27:01;17.80;99.90
69204;DHT22;56317;27.658;85.326;2024-03-06T12:29:32;17.60;99.90
69204;DHT22;56317;27.658;85.326;2024-03-06T12:32:00;17.50;99.90
69204;DHT22;56317;27.658;85.326;2024-03-06T12:34:28;17.40;99.90
69204;DHT22;56317;27.658;85.326;2024-03-06T12:36:56;17.50;99.90
69204;DHT22;56317;27.658;85.326;2024-03-06T12:39:24;17.40;99.90
69204;DHT22;56317;27.658;85.326;2024-03-06T12:41:51;17.30;99.90
69204;DHT22;56317;27.658;85.326;2024-03-06T12:44:21;17.10;99.90
69204;DHT22;56317;27.658;85.326;2024-03-06T12:46:49;16.90;99.90
69204;DHT22;56317;27.658;85.326;2024-03-06T12:49:16;16.90;99.90
69204;DHT22;56317;27.658;85.326;2024-03-06T12:51:44;16.80;99.90
69204;DHT22;56317;27.658;85.326;2024-03-06T12:54:12;16.80;99.90
69204;DHT22;56317;27.658;85.326;2024-03-06T12:56:39;16.70;99.90
69204;DHT22;56317;27.658;85.326;2024-03-06T12:59:08;16.60;99.90
69204;DHT22;56317;27.658;85.326;2024-03-06T13:01:36;16.50;99.90
69204;DHT22;56317;27.658;85.326;2024-03-06T13:04:03;16.30;99.90
69204;DHT22;56317;27.658;85.326;2024-03-06T13:06:32;16.30;99.90
69204;DHT22;56317;27.658;85.326;2024-03-06T13:09:00;16.20;99.90
69204;DHT22;56317;27.658;85.326;2024-03-06T13:11:27;16.10;99.90
69204;DHT22;56317;27.658;85.326;2024-03-06T13:13:54;16.10;99.90
69204;DHT22;56317;27.658;85.326;2024-03-06T13:16:21;15.90;99.90
69204;DHT22;56317;27.658;85.326;2024-03-06T13:18:48;15.80;99.90
69204;DHT22;56317;27.658;85.326;2024-03-06T13:21:19;15.70;99.90
69204;DHT22;56317;27.658;85.326;2024-03-06T13:23:46;15.70;99.90
69204;DHT22;56317;27.658;85.326;2024-03-06T13:26:13;15.70;99.90
69204;DHT22;56317;27.658;85.326;2024-03-06T13:28:40;15.60;99.90
69204;DHT22;56317;27.658;85.326;2024-03-06T13:31:08;15.50;99.90
69204;DHT22;56317;27.658;85.326;2024-03-06T13:33:35;15.40;99.90
69204;DHT22;56317;27.658;85.326;2024-03-06T13:36:04;15.30;99.90
69204;DHT22;56317;27.658;85.326;2024-03-06T13:38:31;15.20;99.90
69204;DHT22;56317;27.658;85.326;2024-03-06T13:41:03;15.30;99.90
69204;DHT22;56317;27.658;85.326;2024-03-06T13:43:31;15.30;99.90
69204;DHT22;56317;27.658;85.326;2024-03-06T13:45:59;15.30;99.90
69204;DHT22;56317;27.658;85.326;2024-03-06T13:48:26;15.10;99.90
69204;DHT22;56317;27.658;85.326;2024-03-06T13:50:53;15.10;99.90
69204;DHT22;56317;27.658;85.326;2024-03-06T13:53:20;15.00;99.90
69204;DHT22;56317;27.658;85.326;2024-03-06T13:55:47;14.90;99.90
69204;DHT22;56317;27.658;85.326;2024-03-06T13:58:14;14.90;99.90
69204;DHT22;56317;27.658;85.326;2024-03-06T14:00:42;14.80;99.90
69204;DHT22;56317;27.658;85.326;2024-03-06T14:03:09;14.80;99.90
69204;DHT22;56317;27.658;85.326;2024-03-06T14:05:39;14.80;99.90
69204;DHT22;56317;27.658;85.326;2024-03-06T14:08:06;14.70;99.90
69204;DHT22;56317;27.658;85.326;2024-03-06T14:10:40;14.70;99.90
69204;DHT22;56317;27.658;85.326;2024-03-06T14:13:07;14.50;1.00
69204;DHT22;56317;27.658;85.326;2024-03-06T14:15:35;14.40;1.00
69204;DHT22;56317;27.658;85.326;2024-03-06T14:18:02;14.40;1.00
69204;DHT22;56317;27.658;85.326;2024-03-06T14:20:31;14.40;1.00
69204;DHT22;56317;27.658;85.326;2024-03-06T14:22:59;14.40;1.00
69204;DHT22;56317;27.658;85.326;2024-03-06T14:25:26;14.40;1.00
69204;DHT22;56317;27.658;85.326;2024-03-06T14:27:53;14.40;1.00
69204;DHT22;56317;27.658;85.326;2024-03-06T14:30:21;14.30;1.00
69204;DHT22;56317;27.658;85.326;2024-03-06T14:32:48;14.40;1.00
69204;DHT22;56317;27.658;85.326;2024-03-06T14:35:15;14.40;1.00
69204;DHT22;56317;27.658;85.326;2024-03-06T14:37:43;14.30;1.00
69204;DHT22;56317;27.658;85.326;2024-03-06T14:40:10;14.10;1.00
69204;DHT22;56317;27.658;85.326;2024-03-06T14:42:37;13.80;1.00
69204;DHT22;56317;27.658;85.326;2024-03-06T14:45:05;13.80;1.00
69204;DHT22;56317;27.658;85.326;2024-03-06T14:47:32;13.90;1.00
69204;DHT22;56317;27.658;85.326;2024-03-06T14:50:00;14.10;1.00
69204;DHT22;56317;27.658;85.326;2024-03-06T14:52:27;14.10;1.00
69204;DHT22;56317;27.658;85.326;2024-03-06T14:54:54;14.20;1.00
69204;DHT22;56317;27.658;85.326;2024-03-06T14:57:21;14.10;1.00
69204;DHT22;56317;27.658;85.326;2024-03-06T14:59:50;14.20;1.00
69204;DHT22;56317;27.658;85.326;2024-03-06T15:02:17;14.00;1.00
69204;DHT22;56317;27.658;85.326;2024-03-06T15:04:44;13.80;1.00
69204;DHT22;56317;27.658;85.326;2024-03-06T15:07:12;13.80;1.00
69204;DHT22;56317;27.658;85.326;2024-03-06T15:09:39;13.90;1.00
69204;DHT22;56317;27.658;85.326;2024-03-06T15:12:06;13.80;1.00
69204;DHT22;56317;27.658;85.326;2024-03-06T15:14:34;13.60;1.00
69204;DHT22;56317;27.658;85.326;2024-03-06T15:17:02;13.50;1.00
69204;DHT22;56317;27.658;85.326;2024-03-06T15:19:33;13.50;1.00
69204;DHT22;56317;27.658;85.326;2024-03-06T15:22:00;13.40;1.00
69204;DHT22;56317;27.658;85.326;2024-03-06T15:24:30;13.40;1.00
69204;DHT22;56317;27.658;85.326;2024-03-06T15:26:58;13.30;1.00
69204;DHT22;56317;27.658;85.326;2024-03-06T15:29:25;13.10;1.00
69204;DHT22;56317;27.658;85.326;2024-03-06T15:31:53;13.10;1.00
69204;DHT22;56317;27.658;85.326;2024-03-06T15:34:21;13.00;1.00
69204;DHT22;56317;27.658;85.326;2024-03-06T15:36:48;12.90;1.00
69204;DHT22;56317;27.658;85.326;2024-03-06T15:39:15;12.90;1.00
69204;DHT22;56317;27.658;85.326;2024-03-06T15:41:42;12.80;1.00
69204;DHT22;56317;27.658;85.326;2024-03-06T15:44:10;12.80;1.00
69204;DHT22;56317;27.658;85.326;2024-03-06T15:46:37;12.70;1.00
69204;DHT22;56317;27.658;85.326;2024-03-06T15:49:18;12.60;1.00
69204;DHT22;56317;27.658;85.326;2024-03-06T15:51:47;12.50;1.00
69204;DHT22;56317;27.658;85.326;2024-03-06T15:54:14;12.50;1.00
69204;DHT22;56317;27.658;85.326;2024-03-06T15:56:42;12.50;1.00
69204;DHT22;56317;27.658;85.326;2024-03-06T15:59:10;12.40;1.00
69204;DHT22;56317;27.658;85.326;2024-03-06T16:01:37;12.60;99.90